Pagrindinis puslapis
METAR-TAF:

METAR-TAF

Oro uostai :

Mijadzakis, Japonija

platuma: 31-52N, ilguma: 131-27E, Aukštis: 6 m

Dabartinis oras

Ataskaita buvo paskelbta 18 minutes, ne 04:00 UTC
Vėjas 8 kt iš Rytų/Šiaurės Rytų
Temperatūra 15°C
Drėgmė 55%
Slėgis 1028 hPa
Matomumas 10 km arba daugiau
Mažai debesys ne aukštis 4000 ft

METAR: RJFM 200400Z 06008KT 9999 FEW040 15/06 Q1028

Laikas: 13:18 (04:18 UTC)

Prognozė

Ataskaita buvo paskelbta 5 valandos ir 10 minutes, ne 23:08 UTC
Prognozė galioja nuo 20 metu 00 UTC su 21 metu 06 UTC
Vėjas 7 kt iš Vakarų/Šiaurės Vakarų
Matomumas 10 km arba daugiau
Mažai debesys ne aukštis 3500 ft
Tapsmas
nuo 20 metu 02 UTC su 20 metu 04 UTC
Vėjas 12 kt iš Šiaurės/Šiaurės Rytų
Tapsmas
nuo 20 metu 12 UTC su 20 metu 15 UTC
Vėjas 8 kt iš Vakarų
Tapsmas
nuo 21 metu 00 UTC su 21 metu 03 UTC
Vėjas 8 kt iš Rytų/Šiaurės Rytų

TAF: RJFM 192308Z 2000/2106 29007KT 9999 FEW035 BECMG 2002/2004 03012KT BECMG 2012/2015 28008KT BECMG 2100/2103 07008KT

Orai ataskaitas ir orų prognozės (METAR, TAF).

turimą stotys yra geltonos ir raudonos taškus žemėlapyje.

Perkelti pele per norėdami pamatyti stoties vardą.

Tada spustelėkite, norėdami matyti oro stebėjimo ir prognozės.

Norėdami pakeisti žemėlapį: spustelėkite ant žalios mygtukų su juodo kryžiaus žemyn,; žalią mygtuką su brūkšneliu, jei norite nutolinti; arba žalių rodyklių gretimoms žemėlapius.


METAR-TAF: